Time;durP1;ratioP1;P1;durP2;ratioP2;P2;SDS_P1;SDS_P2;PMS_P1;PMS_P2;Temp;Humidity;BMP_temperature;BMP_pressure;BME280_temperature;BME280_humidity;BME280_pressure;Samples;Min_cycle;Max_cycle;Signal;HPM_P1;HPM_P2
2022/02/16 00:00:17;;;;;;;444.43;166.83;;;;;;;4.47;100.00;98633.34;5069827;28;20074;-61
2022/02/16 00:02:43;;;;;;;444.23;169.67;;;;;;;4.49;100.00;98627.47;5066572;28;20373;-60
2022/02/16 00:05:11;;;;;;;444.73;167.70;;;;;;;4.42;100.00;98630.78;5067519;28;20037;-59
2022/02/16 00:07:39;;;;;;;445.40;171.17;;;;;;;4.35;100.00;98621.47;5065970;28;20058;-59
2022/02/16 00:10:06;;;;;;;445.17;169.30;;;;;;;4.45;100.00;98625.75;5066578;28;20267;-60
2022/02/16 00:12:31;;;;;;;446.93;171.77;;;;;;;4.44;100.00;98624.06;5066902;28;20416;-60
2022/02/16 00:14:57;;;;;;;444.70;168.23;;;;;;;4.51;100.00;98627.44;5068205;28;20784;-60
2022/02/16 00:17:22;;;;;;;447.50;171.83;;;;;;;4.52;100.00;98630.00;5070334;28;20040;-59
2022/02/16 00:19:48;;;;;;;447.93;174.67;;;;;;;4.50;100.00;98619.00;5069815;28;20051;-59
2022/02/16 00:22:13;;;;;;;447.90;168.13;;;;;;;4.61;100.00;98631.75;5065659;28;20071;-61
2022/02/16 00:24:38;;;;;;;447.33;168.63;;;;;;;4.61;100.00;98631.75;5070772;28;20045;-60
2022/02/16 00:27:04;;;;;;;448.17;172.07;;;;;;;4.66;100.00;98634.31;5074264;28;20117;-62
2022/02/16 00:29:30;;;;;;;445.97;169.80;;;;;;;4.62;100.00;98632.59;5075864;28;20048;-60
2022/02/16 00:31:55;;;;;;;448.93;174.23;;;;;;;4.65;100.00;98628.38;5074059;28;20036;-60
2022/02/16 00:34:20;;;;;;;450.87;174.07;;;;;;;4.69;100.00;98627.53;5076669;28;20041;-60
2022/02/16 00:36:46;;;;;;;449.00;176.47;;;;;;;4.79;100.00;98636.91;5074067;28;20047;-60
2022/02/16 00:39:11;;;;;;;449.70;174.77;;;;;;;4.73;100.00;98633.47;5067129;28;20500;-59
2022/02/16 00:41:36;;;;;;;448.33;174.43;;;;;;;4.73;100.00;98623.31;5066876;28;20595;-60
2022/02/16 00:44:02;;;;;;;449.03;171.13;;;;;;;4.76;100.00;98630.94;5068128;28;20113;-60
2022/02/16 00:46:28;;;;;;;452.40;176.73;;;;;;;4.77;100.00;98625.88;5069949;28;20538;-62
2022/02/16 00:48:53;;;;;;;447.80;173.30;;;;;;;4.85;100.00;98629.28;5066220;28;20029;-62
2022/02/16 00:51:18;;;;;;;449.83;174.57;;;;;;;4.90;100.00;98631.84;5066299;28;20044;-59
2022/02/16 00:53:44;;;;;;;449.17;172.53;;;;;;;4.94;100.00;98634.41;5067784;28;20090;-61
2022/02/16 00:56:09;;;;;;;450.77;179.30;;;;;;;4.89;100.00;98631.00;5069167;28;20040;-61
2022/02/16 00:58:35;;;;;;;449.80;172.03;;;;;;;4.98;100.00;98618.34;5065292;28;20378;-60
2022/02/16 01:01:00;;;;;;;450.23;176.03;;;;;;;4.99;100.00;98625.13;5066390;28;20055;-61
2022/02/16 01:03:26;;;;;;;448.67;178.73;;;;;;;5.02;100.00;98603.94;5068010;28;20083;-61
2022/02/16 01:05:51;;;;;;;451.30;181.83;;;;;;;5.01;100.00;98612.41;5069890;28;20113;-60
2022/02/16 01:08:17;;;;;;;451.67;177.40;;;;;;;5.04;100.00;98609.88;5064353;28;20041;-60
2022/02/16 01:10:43;;;;;;;450.70;175.10;;;;;;;5.03;100.00;98616.66;5066662;28;20029;-60
2022/02/16 01:13:09;;;;;;;449.23;177.17;;;;;;;5.07;100.00;98605.66;5067335;28;20040;-62
2022/02/16 01:15:35;;;;;;;454.03;187.97;;;;;;;5.03;100.00;98603.97;5068504;28;20255;-60
2022/02/16 01:18:01;;;;;;;452.63;181.87;;;;;;;4.96;100.00;98606.47;5065303;28;20529;-61
2022/02/16 01:20:27;;;;;;;451.93;178.60;;;;;;;5.00;100.00;98596.34;5065868;28;20336;-61
2022/02/16 01:22:52;;;;;;;451.97;187.50;;;;;;;4.99;100.00;98593.78;5068909;28;20910;-61
2022/02/16 01:25:17;;;;;;;453.20;185.70;;;;;;;4.93;100.00;98593.75;5066729;28;20582;-60
2022/02/16 01:27:43;;;;;;;452.00;181.10;;;;;;;4.88;100.00;98591.19;5065848;28;20798;-61
2022/02/16 01:30:10;;;;;;;453.70;188.07;;;;;;;4.87;100.00;98593.75;5064542;28;20398;-60
2022/02/16 01:32:35;;;;;;;456.23;192.53;;;;;;;4.82;100.00;98595.44;5068808;28;20062;-60
2022/02/16 01:35:01;;;;;;;456.13;192.07;;;;;;;4.77;100.00;98599.63;5065764;28;20880;-60
2022/02/16 01:37:26;;;;;;;454.77;187.80;;;;;;;4.73;100.00;98596.25;5065592;28;20090;-61
2022/02/16 01:39:52;;;;;;;455.40;192.73;;;;;;;4.82;100.00;98592.88;5065348;28;20139;-60
2022/02/16 01:42:20;;;;;;;453.73;187.30;;;;;;;4.92;100.00;98592.09;5063503;28;20404;-60
2022/02/16 01:44:46;;;;;;;455.17;190.03;;;;;;;4.97;100.00;98596.31;5062109;28;20032;-60
2022/02/16 01:47:12;;;;;;;454.53;191.03;;;;;;;4.91;100.00;98586.16;5060736;28;20317;-60
2022/02/16 01:49:39;;;;;;;453.57;187.57;;;;;;;4.90;100.00;98596.28;5061586;28;20039;-59
2022/02/16 01:52:06;;;;;;;455.47;196.13;;;;;;;4.92;100.00;98589.53;5063205;28;20048;-60
2022/02/16 01:54:32;;;;;;;452.47;182.60;;;;;;;4.94;100.00;98586.16;5061699;28;20255;-59
2022/02/16 01:56:58;;;;;;;452.13;186.83;;;;;;;4.91;100.00;98576.00;5060501;28;20334;-61
2022/02/16 01:59:25;;;;;;;449.73;181.50;;;;;;;4.97;100.00;98568.38;5066125;28;20116;-60
2022/02/16 02:01:51;;;;;;;452.70;186.80;;;;;;;5.05;100.00;98570.91;5068781;28;20090;-60
2022/02/16 02:04:18;;;;;;;452.53;183.67;;;;;;;5.01;100.00;98571.75;5064663;28;20266;-61
2022/02/16 02:06:44;;;;;;;452.30;182.67;;;;;;;5.01;100.00;98567.53;5064928;28;20267;-61
2022/02/16 02:09:11;;;;;;;453.00;181.80;;;;;;;5.01;100.00;98564.97;5067621;28;20274;-60
2022/02/16 02:11:36;;;;;;;450.53;181.47;;;;;;;4.93;100.00;98556.50;5065273;28;20259;-61
2022/02/16 02:14:04;;;;;;;453.23;181.80;;;;;;;5.07;100.00;98559.06;5062055;28;20704;-61
2022/02/16 02:16:30;;;;;;;455.17;188.27;;;;;;;5.05;100.00;98565.84;5061427;28;20120;-61
2022/02/16 02:18:55;;;;;;;450.57;181.50;;;;;;;5.03;100.00;98559.91;5065294;28;20413;-61
2022/02/16 02:21:21;;;;;;;449.80;180.77;;;;;;;5.04;100.00;98554.00;5066908;28;20123;-61
2022/02/16 02:23:48;;;;;;;449.97;182.07;;;;;;;5.06;100.00;98562.47;5064883;28;20080;-61
2022/02/16 02:26:14;;;;;;;453.27;184.80;;;;;;;5.04;100.00;98548.91;5063049;28;20040;-60
2022/02/16 02:28:40;;;;;;;452.03;185.40;;;;;;;5.12;100.00;98552.31;5068277;28;20753;-58
2022/02/16 02:31:07;;;;;;;453.00;189.50;;;;;;;5.03;100.00;98549.75;5066616;28;20283;-60
2022/02/16 02:33:32;;;;;;;453.30;186.70;;;;;;;5.05;100.00;98545.50;5063980;28;20082;-59
2022/02/16 02:35:58;;;;;;;454.20;190.83;;;;;;;5.04;100.00;98549.78;5063204;28;20267;-60
2022/02/16 02:38:24;;;;;;;454.27;185.43;;;;;;;5.00;100.00;98543.00;5068042;28;20063;-58
2022/02/16 02:40:54;;;;;;;451.23;186.03;;;;;;;5.21;100.00;98542.16;5066212;28;20051;-59
2022/02/16 02:43:20;;;;;;;452.37;182.20;;;;;;;5.21;100.00;98542.16;5064343;28;20267;-60
2022/02/16 02:45:46;;;;;;;452.93;188.77;;;;;;;5.17;100.00;98534.53;5064066;28;20770;-60
2022/02/16 02:48:11;;;;;;;453.17;186.53;;;;;;;5.05;100.00;98535.34;5073749;28;20060;-60
2022/02/16 02:50:36;;;;;;;452.10;188.60;;;;;;;5.07;100.00;98539.59;5070269;28;20433;-60
2022/02/16 02:53:02;;;;;;;452.97;191.23;;;;;;;4.97;100.00;98542.97;5068977;28;20253;-60
2022/02/16 02:55:28;;;;;;;455.07;192.57;;;;;;;4.85;100.00;98537.88;5068383;28;20040;-61
2022/02/16 02:57:54;;;;;;;455.13;195.97;;;;;;;4.78;100.00;98535.31;5071980;28;20029;-60
2022/02/16 03:00:19;;;;;;;454.40;196.37;;;;;;;4.70;100.00;98530.22;5069661;28;20536;-60
2022/02/16 03:02:44;;;;;;;453.87;194.83;;;;;;;4.65;100.00;98533.59;5066727;28;20135;-59
2022/02/16 03:05:11;;;;;;;453.20;189.93;;;;;;;4.58;100.00;98531.00;5069161;28;20131;-59
2022/02/16 03:07:37;;;;;;;452.73;190.00;;;;;;;4.55;100.00;98525.09;5071157;28;20071;-61
2022/02/16 03:10:03;;;;;;;454.37;194.57;;;;;;;4.51;100.00;98531.84;5068796;28;20325;-60
2022/02/16 03:12:29;;;;;;;456.33;198.40;;;;;;;4.50;100.00;98529.28;5066439;28;20662;-59
2022/02/16 03:14:54;;;;;;;454.57;193.03;;;;;;;4.53;100.00;98525.09;5070034;28;20031;-59
2022/02/16 03:17:20;;;;;;;454.93;191.87;;;;;;;4.52;100.00;98531.00;5069743;28;20083;-59
2022/02/16 03:19:45;;;;;;;454.20;190.60;;;;;;;4.51;100.00;98531.00;5068328;28;20028;-60
2022/02/16 03:22:10;;;;;;;451.03;190.13;;;;;;;4.49;100.00;98532.69;5066371;28;20050;-61
2022/02/16 03:24:36;;;;;;;452.77;189.90;;;;;;;4.45;100.00;98541.16;5070514;28;20032;-59
2022/02/16 03:27:02;;;;;;;454.13;194.57;;;;;;;4.41;100.00;98540.25;5069907;28;20057;-60
2022/02/16 03:29:27;;;;;;;451.37;187.33;;;;;;;4.36;100.00;98544.50;5068825;28;20037;-60
2022/02/16 03:31:52;;;;;;;454.27;190.43;;;;;;;4.32;100.00;98536.84;5066045;28;20595;-60
2022/02/16 03:34:18;;;;;;;452.90;190.87;;;;;;;4.26;100.00;98535.13;5069566;28;20064;-59
2022/02/16 03:36:43;;;;;;;453.30;189.10;;;;;;;4.23;100.00;98537.66;5070594;28;20514;-59
2022/02/16 03:39:09;;;;;;;451.07;187.33;;;;;;;4.17;100.00;98535.09;5068618;28;20044;-58
2022/02/16 03:41:35;;;;;;;452.83;188.03;;;;;;;4.14;100.00;98524.94;5065875;28;20036;-58
2022/02/16 03:44:01;;;;;;;454.33;187.77;;;;;;;4.13;100.00;98538.44;5070895;28;20067;-59
2022/02/16 03:46:26;;;;;;;453.53;193.53;;;;;;;4.10;100.00;98530.84;5070910;28;20259;-59
2022/02/16 03:48:52;;;;;;;452.13;185.43;;;;;;;4.11;100.00;98532.53;5066884;28;20044;-58
2022/02/16 03:51:17;;;;;;;451.80;184.77;;;;;;;4.07;100.00;98530.84;5068608;28;20529;-60
2022/02/16 03:53:43;;;;;;;453.03;187.33;;;;;;;4.06;100.00;98536.72;5072351;28;20044;-57
2022/02/16 03:56:09;;;;;;;455.17;189.70;;;;;;;3.97;100.00;98521.47;5073983;28;20037;-60
2022/02/16 03:58:34;;;;;;;451.00;184.57;;;;;;;4.00;100.00;98529.09;5068762;28;20275;-59
2022/02/16 04:01:00;;;;;;;456.53;193.43;;;;;;;3.97;100.00;98531.59;5071330;28;20036;-58
2022/02/16 04:03:25;;;;;;;449.80;177.83;;;;;;;3.96;100.00;98529.91;5071785;28;20056;-61
2022/02/16 04:05:51;;;;;;;450.77;183.17;;;;;;;3.95;100.00;98525.66;5069320;28;20079;-60
2022/02/16 04:08:16;;;;;;;452.40;185.67;;;;;;;3.94;100.00;98531.59;5066482;28;20044;-64
2022/02/16 04:10:42;;;;;;;452.83;182.93;;;;;;;3.91;100.00;98523.94;5067580;28;20144;-60
2022/02/16 04:13:08;;;;;;;451.80;183.60;;;;;;;3.87;100.00;98520.56;5067839;28;20470;-61
2022/02/16 04:15:35;;;;;;;453.27;180.77;;;;;;;3.90;100.00;98514.69;5069376;28;20079;-60
2022/02/16 04:18:00;;;;;;;449.47;180.60;;;;;;;3.86;100.00;98518.84;5065669;28;20289;-61
2022/02/16 04:20:26;;;;;;;451.63;176.57;;;;;;;3.90;100.00;98519.75;5067024;28;20247;-60
2022/02/16 04:22:52;;;;;;;451.17;180.60;;;;;;;3.92;100.00;98515.50;5050950;28;20478;-60
2022/02/16 04:25:17;;;;;;;450.37;181.67;;;;;;;3.89;100.00;98521.44;5068302;28;20043;-60
2022/02/16 04:27:44;;;;;;;452.53;179.77;;;;;;;3.87;100.00;98520.56;5066703;28;20194;-60
2022/02/16 04:30:09;;;;;;;449.40;175.87;;;;;;;3.82;100.00;98516.31;5066187;28;20174;-60
2022/02/16 04:32:35;;;;;;;451.57;178.77;;;;;;;3.78;100.00;98520.50;5069525;28;20377;-61
2022/02/16 04:35:01;;;;;;;450.03;175.70;;;;;;;3.81;100.00;98523.06;5065252;28;20201;-60
2022/02/16 04:37:26;;;;;;;450.13;174.27;;;;;;;3.79;100.00;98518.81;5066477;28;20549;-61
2022/02/16 04:39:52;;;;;;;452.07;182.87;;;;;;;3.76;100.00;98518.81;5065701;28;20637;-61
2022/02/16 04:42:17;;;;;;;449.03;173.20;;;;;;;3.69;100.00;98516.22;5069793;28;20089;-60
2022/02/16 04:44:43;;;;;;;448.80;175.80;;;;;;;3.62;100.00;98517.03;5066242;28;20394;-61
2022/02/16 04:47:09;;;;;;;449.53;178.60;;;;;;;3.55;100.00;98517.84;5066343;28;20056;-61
2022/02/16 04:49:34;;;;;;;452.53;180.37;;;;;;;3.45;100.00;98518.59;5066769;28;20037;-61
2022/02/16 04:52:00;;;;;;;449.53;176.27;;;;;;;3.33;100.00;98508.38;5069783;28;20055;-60
2022/02/16 04:54:25;;;;;;;451.33;174.77;;;;;;;3.25;100.00;98507.47;5066453;28;20514;-59
2022/02/16 04:56:51;;;;;;;449.37;174.37;;;;;;;3.13;100.00;98503.16;5068173;28;20044;-60
2022/02/16 04:59:16;;;;;;;448.40;169.70;;;;;;;3.00;100.00;98503.03;5075105;28;20032;-61
2022/02/16 05:01:43;;;;;;;447.00;168.17;;;;;;;2.95;100.00;98512.28;5077031;28;20923;-59
2022/02/16 05:04:08;;;;;;;450.57;173.43;;;;;;;2.85;100.00;98505.41;5074618;28;20534;-58
2022/02/16 05:06:37;;;;;;;447.93;166.63;;;;;;;2.76;100.00;98508.72;5071472;28;20267;-61
2022/02/16 05:09:07;;;;;;;448.70;165.40;;;;;;;2.69;100.00;98509.50;5068610;28;20071;-59
2022/02/16 05:11:32;;;;;;;447.90;162.80;;;;;;;2.61;100.00;98501.81;5068188;28;20282;-60
2022/02/16 05:13:58;;;;;;;448.10;163.40;;;;;;;2.53;100.00;98505.09;5065811;28;20266;-61
2022/02/16 05:16:23;;;;;;;447.97;162.77;;;;;;;2.44;100.00;98499.94;5064464;28;20048;-60
2022/02/16 05:18:49;;;;;;;446.03;158.03;;;;;;;2.37;100.00;98503.25;5069098;28;20059;-61
2022/02/16 05:21:15;;;;;;;446.70;159.23;;;;;;;2.28;100.00;98497.25;5067961;28;20060;-60
2022/02/16 05:23:41;;;;;;;448.13;161.93;;;;;;;2.22;100.00;98499.69;5065345;28;20036;-60
2022/02/16 05:26:07;;;;;;;445.53;154.43;;;;;;;2.09;100.00;98492.81;5064444;28;20040;-60
2022/02/16 05:28:32;;;;;;;445.17;159.80;;;;;;;2.06;100.00;98491.91;5068746;28;20263;-59
2022/02/16 05:30:58;;;;;;;447.97;156.33;;;;;;;2.02;100.00;98495.25;5067627;28;20052;-59
2022/02/16 05:33:23;;;;;;;445.87;153.50;;;;;;;1.93;100.00;98498.50;5064699;28;20510;-58
2022/02/16 05:35:49;;;;;;;446.20;153.50;;;;;;;1.82;100.00;98495.81;5062322;28;20059;-60
2022/02/16 05:38:15;;;;;;;446.07;150.80;;;;;;;1.73;100.00;98485.63;5069085;28;20126;-60
2022/02/16 05:40:42;;;;;;;444.07;148.63;;;;;;;1.62;100.00;98487.13;5067735;28;20052;-60
2022/02/16 05:43:10;;;;;;;444.27;150.37;;;;;;;1.59;100.00;98496.34;5064833;28;20259;-59
2022/02/16 05:45:36;;;;;;;444.23;148.90;;;;;;;1.55;100.00;98499.66;5066783;28;20460;-60
2022/02/16 05:48:02;;;;;;;444.03;149.93;;;;;;;1.50;100.00;98499.59;5064506;28;20271;-62
2022/02/16 05:50:28;;;;;;;444.07;147.13;;;;;;;1.57;100.00;98501.38;5065612;28;20274;-58
2022/02/16 05:52:53;;;;;;;447.23;149.53;;;;;;;1.51;100.00;98493.72;5063970;28;20289;-61
2022/02/16 05:55:19;;;;;;;441.20;147.13;;;;;;;1.44;100.00;98491.09;5066430;28;20386;-55
2022/02/16 05:57:44;;;;;;;442.80;149.07;;;;;;;1.44;100.00;98491.94;5068421;28;20040;-59
2022/02/16 06:00:10;;;;;;;444.13;147.13;;;;;;;1.38;100.00;98490.16;5067724;28;20044;-58
2022/02/16 06:02:36;;;;;;;440.33;141.03;;;;;;;1.31;100.00;98495.97;5065307;28;20032;-56
2022/02/16 06:05:01;;;;;;;443.13;145.53;;;;;;;1.28;100.00;98495.03;5066775;28;20274;-54
2022/02/16 06:07:27;;;;;;;445.00;144.73;;;;;;;1.22;100.00;98495.81;5068847;28;20044;-57
2022/02/16 06:09:52;;;;;;;442.53;145.13;;;;;;;1.20;100.00;98492.41;5066041;28;20055;-54
2022/02/16 06:12:18;;;;;;;443.43;146.33;;;;;;;1.14;100.00;98491.47;5065541;28;20234;-57
2022/02/16 06:14:43;;;;;;;440.23;145.97;;;;;;;1.11;100.00;98497.31;5063318;28;20037;-56
2022/02/16 06:17:08;;;;;;;443.47;140.17;;;;;;;1.32;100.00;98499.31;5063298;28;20049;-60
2022/02/16 06:19:34;;;;;;;443.17;140.83;;;;;;;1.32;100.00;98501.84;5062495;28;20048;-61
2022/02/16 06:21:59;;;;;;;443.60;144.07;;;;;;;1.30;100.00;98498.44;5063443;28;20616;-59
2022/02/16 06:24:24;;;;;;;443.03;140.30;;;;;;;1.30;100.00;98496.78;5067620;28;20517;-61
2022/02/16 06:26:50;;;;;;;444.47;139.90;;;;;;;1.37;100.00;98505.28;5068448;28;20045;-61
2022/02/16 06:29:15;;;;;;;438.73;136.40;;;;;;;1.35;100.00;98501.91;5070587;28;20037;-61
2022/02/16 06:31:41;;;;;;;442.87;140.00;;;;;;;1.39;100.00;98503.66;5073025;28;20036;-57
2022/02/16 06:34:06;;;;;;;440.57;139.00;;;;;;;1.33;100.00;98504.41;5078924;28;20443;-61
2022/02/16 06:36:31;;;;;;;442.87;139.03;;;;;;;1.42;100.00;98511.25;5072783;28;20109;-56
2022/02/16 06:38:57;;;;;;;440.53;139.30;;;;;;;1.48;100.00;98516.41;5069355;28;20040;-62
2022/02/16 06:41:22;;;;;;;439.53;140.77;;;;;;;1.54;100.00;98508.91;5064405;28;20044;-58
2022/02/16 06:43:48;;;;;;;439.10;140.53;;;;;;;1.71;100.00;98499.88;5064191;28;20457;-60
2022/02/16 06:46:15;;;;;;;440.93;140.03;;;;;;;1.79;100.00;98507.56;5065073;28;20170;-60
2022/02/16 06:48:41;;;;;;;437.67;138.67;;;;;;;1.86;100.00;98511.91;5066353;28;20040;-61
2022/02/16 06:51:06;;;;;;;439.23;138.97;;;;;;;1.99;100.00;98515.44;5068246;28;20251;-58
2022/02/16 06:53:31;;;;;;;441.87;144.37;;;;;;;2.06;100.00;98510.47;5065244;28;20044;-60
2022/02/16 06:55:57;;;;;;;440.27;142.70;;;;;;;2.16;100.00;98517.34;5064011;28;20036;-60
2022/02/16 06:58:22;;;;;;;437.73;139.33;;;;;;;2.23;100.00;98503.09;5067216;28;20067;-60
2022/02/16 07:00:48;;;;;;;439.40;141.40;;;;;;;2.43;100.00;98509.22;5067527;28;20363;-59
2022/02/16 07:03:14;;;;;;;441.90;145.77;;;;;;;2.62;100.00;98517.88;5064865;28;20052;-61
2022/02/16 07:05:40;;;;;;;442.80;146.50;;;;;;;2.79;100.00;98512.97;5063369;28;20041;-60
2022/02/16 07:08:06;;;;;;;442.80;151.83;;;;;;;2.96;100.00;98513.97;5068658;28;20270;-60
2022/02/16 07:10:31;;;;;;;442.30;150.53;;;;;;;3.14;100.00;98509.09;5066900;28;20569;-59
2022/02/16 07:12:57;;;;;;;446.10;155.00;;;;;;;3.36;100.00;98503.31;5064609;28;20045;-60
2022/02/16 07:15:22;;;;;;;447.30;157.03;;;;;;;3.57;100.00;98503.47;5063085;28;20041;-58
2022/02/16 07:17:47;;;;;;;444.53;156.13;;;;;;;3.76;100.00;98509.53;5068058;28;20036;-59
2022/02/16 07:20:15;;;;;;;448.10;162.30;;;;;;;3.98;100.00;98510.50;5066804;28;20044;-60
2022/02/16 07:22:45;;;;;;;451.90;167.60;;;;;;;4.16;100.00;98499.59;5065005;28;20060;-58
2022/02/16 07:25:11;;;;;;;449.17;168.33;;;;;;;4.41;100.00;98502.19;5063014;28;20602;-58
2022/02/16 07:27:37;;;;;;;450.07;168.83;;;;;;;4.51;100.00;98492.91;5068092;28;20259;-59
2022/02/16 07:30:06;;;;;;;448.47;170.73;;;;;;;4.71;100.00;98503.16;5065888;28;20262;-60
2022/02/16 07:32:31;;;;;;;453.40;172.70;;;;;;;4.81;100.00;98490.44;5064682;28;20049;-60
2022/02/16 07:34:57;;;;;;;451.77;180.13;;;;;;;4.92;100.00;98493.03;5068454;28;20274;-60
2022/02/16 07:37:22;;;;;;;451.87;183.23;;;;;;;4.96;100.00;98490.50;5070895;28;20040;-60
2022/02/16 07:39:48;;;;;;;454.60;185.93;;;;;;;5.05;100.00;98499.78;5069036;28;20036;-60
2022/02/16 07:42:13;;;;;;;455.93;189.97;;;;;;;5.17;100.00;98491.34;5064429;28;20402;-60
2022/02/16 07:44:39;;;;;;;453.97;184.90;;;;;;;5.32;100.00;98498.94;5066450;28;20496;-61
2022/02/16 07:47:08;;;;;;;454.63;189.57;;;;;;;5.37;100.00;98502.34;5068496;28;20094;-62
2022/02/16 07:49:34;;;;;;;456.27;194.43;;;;;;;5.47;100.00;98494.69;5064754;28;20047;-61
2022/02/16 07:51:59;;;;;;;453.77;188.90;;;;;;;5.52;100.00;98487.91;5067323;28;20303;-59
2022/02/16 07:54:25;;;;;;;457.57;204.10;;;;;;;5.47;100.00;98456.56;5067750;28;20044;-60
2022/02/16 07:56:50;;;;;;;459.27;202.00;;;;;;;5.71;100.00;98482.81;5069133;28;20037;-58
2022/02/16 07:59:16;;;;;;;456.17;200.23;;;;;;;5.77;100.00;98478.53;5068099;28;20097;-60
2022/02/16 08:01:42;;;;;;;459.73;204.67;;;;;;;5.93;100.00;98476.84;5066112;28;20106;-60
2022/02/16 08:04:16;;;;;;;459.23;209.40;;;;;;;5.97;100.00;98483.63;5068681;28;20051;-60
2022/02/16 08:06:42;;;;;;;461.00;211.17;;;;;;;5.92;100.00;98482.78;5070171;28;20040;-58
2022/02/16 08:09:10;;;;;;;460.63;215.23;;;;;;;5.99;100.00;98474.25;5067933;28;20267;-62
2022/02/16 08:11:36;;;;;;;461.73;216.43;;;;;;;6.04;100.00;98479.34;5065732;28;20083;-58
2022/02/16 08:14:03;;;;;;;460.90;213.50;;;;;;;6.07;100.00;98475.06;5067909;28;20052;-60
2022/02/16 08:16:29;;;;;;;461.40;214.83;;;;;;;6.05;100.00;98471.72;5068184;28;20090;-59
2022/02/16 08:18:54;;;;;;;464.67;231.83;;;;;;;6.15;100.00;98470.00;5066651;28;20475;-61
2022/02/16 08:21:19;;;;;;;462.70;226.33;;;;;;;6.17;100.00;98469.13;5065242;28;20429;-61
2022/02/16 08:23:45;;;;;;;463.67;222.70;;;;;;;6.39;100.00;98465.63;5067161;28;20044;-60
2022/02/16 08:26:10;;;;;;;463.17;223.73;;;;;;;6.52;100.00;98465.56;5069421;28;20033;-60
2022/02/16 08:28:37;;;;;;;464.10;227.17;;;;;;;6.69;100.00;98461.22;5066601;28;20414;-60
2022/02/16 08:31:03;;;;;;;464.97;230.37;;;;;;;6.70;100.00;98456.13;5066371;28;20126;-60
2022/02/16 08:33:29;;;;;;;469.93;244.27;;;;;;;6.78;100.00;98458.59;5068333;28;20037;-58
2022/02/16 08:35:54;;;;;;;467.80;241.60;;;;;;;6.94;100.00;98460.19;5051498;28;20064;-60
2022/02/16 08:38:20;;;;;;;467.83;240.03;;;;;;;6.89;100.00;98447.47;5065080;28;20082;-61
2022/02/16 08:40:45;;;;;;;469.83;247.17;;;;;;;7.12;100.00;98446.47;5066381;28;20106;-61
2022/02/16 08:43:11;;;;;;;467.13;240.90;;;;;;;7.13;100.00;98433.69;5067695;28;20385;-58
2022/02/16 08:45:36;;;;;;;471.67;254.43;;;;;;;7.14;100.00;98439.63;5069585;28;20040;-59
2022/02/16 08:48:01;;;;;;;471.73;253.83;;;;;;;7.15;100.00;98434.53;5065612;28;20046;-57
2022/02/16 08:50:27;;;;;;;471.27;251.77;;;;;;;7.14;100.00;98430.28;5066783;28;20094;-60
2022/02/16 08:52:52;;;;;;;472.57;256.73;;;;;;;6.99;100.00;98422.78;5068172;28;20895;-58
2022/02/16 08:55:18;;;;;;;470.20;246.00;;;;;;;7.17;100.00;98427.69;5068835;28;20056;-60
2022/02/16 08:57:43;;;;;;;472.40;252.73;;;;;;;7.14;100.00;98421.78;5065056;28;20834;-60
2022/02/16 09:00:09;;;;;;;471.20;255.40;;;;;;;7.32;100.00;98422.47;5067211;28;20037;-58
2022/02/16 09:02:36;;;;;;;472.50;253.90;;;;;;;7.45;100.00;98414.69;5068628;28;20044;-59
2022/02/16 09:05:03;;;;;;;472.53;260.43;;;;;;;7.52;100.00;98413.75;5066328;28;20045;-60
2022/02/16 09:07:28;;;;;;;475.83;272.63;;;;;;;7.77;100.00;98405.81;5065884;28;20063;-61
2022/02/16 09:09:54;;;;;;;476.17;271.43;;;;;;;7.80;100.00;98399.88;5065074;28;20044;-61
2022/02/16 09:12:20;;;;;;;476.93;271.40;;;;;;;7.94;100.00;98405.63;5063856;28;20044;-61
2022/02/16 09:14:45;;;;;;;478.93;286.47;;;;;;;7.93;100.00;98393.75;5066651;28;20039;-60
2022/02/16 09:17:10;;;;;;;477.50;283.07;;;;;;;8.15;100.00;98391.75;5067692;28;20024;-59
2022/02/16 09:19:37;;;;;;;482.70;295.37;;;;;;;8.07;100.00;98391.84;5067483;28;20056;-60
2022/02/16 09:22:03;;;;;;;480.27;291.73;;;;;;;8.31;100.00;98383.06;5063356;28;20159;-61
2022/02/16 09:24:30;;;;;;;481.60;299.33;;;;;;;8.31;100.00;98382.22;5067087;28;20044;-61
2022/02/16 09:26:56;;;;;;;483.63;301.47;;;;;;;8.39;100.00;98376.13;5068065;28;20083;-62
2022/02/16 09:29:22;;;;;;;483.40;306.17;;;;;;;8.52;100.00;98380.19;5067081;28;20079;-60
2022/02/16 09:31:49;;;;;;;484.50;312.10;;;;;;;8.53;100.00;98374.19;5063559;28;20139;-61
2022/02/16 09:34:16;;;;;;;482.83;308.63;;;;;;;8.63;100.00;98369.81;5066610;28;20135;-61
2022/02/16 09:36:41;;;;;;;483.07;309.73;;;;;;;8.67;100.00;98361.22;5067350;28;20477;-61
2022/02/16 09:39:07;;;;;;;485.47;319.00;;;;;;;8.68;100.00;98362.91;5066044;28;20048;-62
2022/02/16 09:41:32;;;;;;;485.90;321.23;;;;;;;8.90;100.00;98355.75;5045337;28;20067;-60
2022/02/16 09:43:58;;;;;;;486.40;321.60;;;;;;;8.87;100.00;98353.25;5042158;28;20036;-59
2022/02/16 09:46:24;;;;;;;487.03;324.07;;;;;;;8.90;97.17;98341.25;5066869;28;20103;-61
2022/02/16 09:48:50;;;;;;;488.70;330.70;;;;;;;9.09;97.77;98345.16;5065714;28;20044;-61
2022/02/16 09:51:16;;;;;;;488.70;334.07;;;;;;;9.10;97.68;98341.75;5063884;28;20039;-60
2022/02/16 09:53:41;;;;;;;487.43;331.00;;;;;;;9.22;98.70;98327.88;5067448;28;20127;-60
2022/02/16 09:56:07;;;;;;;489.37;334.57;;;;;;;9.30;95.20;98323.47;5066469;28;20111;-60
2022/02/16 09:58:33;;;;;;;493.10;349.67;;;;;;;9.41;94.92;98313.03;5064025;28;20072;-61
2022/02/16 10:01:03;;;;;;;493.87;345.90;;;;;;;9.57;94.88;98315.25;5064093;28;20044;-60
2022/02/16 10:03:28;;;;;;;491.67;350.23;;;;;;;9.62;93.44;98294.69;5066627;28;20512;-60
2022/02/16 10:05:53;;;;;;;495.60;363.10;;;;;;;9.86;92.99;98296.75;5067853;28;20037;-62
2022/02/16 10:08:48;;;;;;;497.10;361.83;;;;;;;9.95;87.17;98293.97;5064190;28;20055;-62
2022/02/16 10:11:15;;;;;;;495.13;360.10;;;;;;;9.77;83.62;98284.13;5065290;28;20052;-61
2022/02/16 10:13:41;;;;;;;494.23;365.30;;;;;;;10.04;82.74;98291.22;5067858;28;20106;-61
2022/02/16 10:16:06;;;;;;;497.23;370.60;;;;;;;9.98;79.02;98275.97;5063921;28;20040;-61
2022/02/16 10:18:32;;;;;;;497.73;378.90;;;;;;;10.09;79.58;98270.63;5061835;28;20033;-58
2022/02/16 10:21:13;;;;;;;499.80;383.57;;;;;;;10.29;77.16;98272.75;5062873;28;20044;-60
2022/02/16 10:23:42;;;;;;;498.47;383.07;;;;;;;10.32;76.68;98259.84;5064650;28;20043;-61
2022/02/16 10:26:07;;;;;;;501.10;403.70;;;;;;;10.35;73.18;98267.50;5065369;28;20036;-60
2022/02/16 10:28:39;;;;;;;500.93;393.67;;;;;;;10.47;70.30;98262.06;5064100;28;20037;-60
2022/02/16 10:31:07;;;;;;;500.10;392.63;;;;;;;10.51;67.47;98259.41;5066962;28;20041;-59
2022/02/16 10:33:37;;;;;;;501.70;402.30;;;;;;;10.65;67.19;98255.66;5067737;28;20060;-60
2022/02/16 10:36:18;;;;;;;504.03;409.77;;;;;;;10.77;68.13;98245.06;5063787;28;20044;-61
2022/02/16 10:39:03;;;;;;;502.03;409.23;;;;;;;10.72;66.50;98240.06;5065325;28;20107;-61
2022/02/16 10:41:41;;;;;;;504.83;415.10;;;;;;;10.82;63.63;98241.50;5068232;28;20740;-62
2022/02/16 10:44:24;;;;;;;503.63;416.07;;;;;;;10.80;66.91;98227.88;5066313;28;20161;-59
2022/02/16 10:47:09;;;;;;;506.17;421.73;;;;;;;10.88;66.12;98227.66;5063638;28;20562;-61
2022/02/16 10:49:37;;;;;;;504.60;418.13;;;;;;;10.92;67.54;98219.00;5064339;28;20049;-61
2022/02/16 10:52:20;;;;;;;505.90;423.57;;;;;;;11.06;67.62;98206.66;5067857;28;20470;-61
2022/02/16 10:54:56;;;;;;;509.10;437.20;;;;;;;10.95;67.90;98206.09;5063272;28;20110;-61
2022/02/16 10:57:21;;;;;;;508.97;432.73;;;;;;;11.06;68.17;98198.97;5064301;28;20069;-61